Time;durP1;ratioP1;P1;durP2;ratioP2;P2;SDS_P1;SDS_P2;PMS_P1;PMS_P2;Temp;Humidity;BMP_temperature;BMP_pressure;BME280_temperature;BME280_humidity;BME280_pressure;Samples;Min_cycle;Max_cycle;Signal;HPM_P1;HPM_P2
2020/12/06 00:02:54;;;;;;;32.78;20.02;;;;;;;6.42;82.13;98385.98;2187506;80;21124;-80
2020/12/06 00:05:55;;;;;;;25.82;17.87;;;;;;;6.38;82.24;98386.77;2183500;81;21218;-81
2020/12/06 00:08:56;;;;;;;26.15;18.30;;;;;;;6.39;82.34;98390.19;2183734;81;21268;-77
2020/12/06 00:11:58;;;;;;;28.90;17.65;;;;;;;6.37;82.61;98380.44;2177164;81;21090;-77
2020/12/06 00:14:59;;;;;;;23.42;16.30;;;;;;;6.34;82.64;98376.38;2179875;81;21225;-79
2020/12/06 00:18:00;;;;;;;32.80;19.25;;;;;;;6.36;82.87;98374.91;2164105;81;21363;-80
2020/12/06 00:21:01;;;;;;;30.75;18.82;;;;;;;6.38;82.88;98367.75;2179074;81;21344;-81
2020/12/06 00:24:04;;;;;;;29.05;17.48;;;;;;;6.42;82.88;98358.67;2148889;81;21104;-80
2020/12/06 00:27:06;;;;;;;29.40;16.80;;;;;;;6.42;82.99;98356.08;2165574;81;21281;-78
2020/12/06 00:30:07;;;;;;;29.55;17.57;;;;;;;6.44;83.27;98357.53;2179732;80;21729;-77
2020/12/06 00:33:08;;;;;;;29.05;17.85;;;;;;;6.49;83.38;98356.57;2168280;81;21249;-80
2020/12/06 00:36:09;;;;;;;27.27;17.90;;;;;;;6.52;83.41;98351.52;2179412;81;21258;-77
2020/12/06 00:39:10;;;;;;;28.07;16.52;;;;;;;6.57;83.18;98359.63;2168999;81;21202;-81
2020/12/06 00:42:11;;;;;;;26.65;17.30;;;;;;;6.58;83.27;98350.85;2182393;80;21277;-77
2020/12/06 00:45:12;;;;;;;27.37;17.30;;;;;;;6.61;82.99;98349.25;2133939;82;21111;-77
2020/12/06 00:48:13;;;;;;;24.77;15.55;;;;;;;6.64;82.89;98358.02;2157890;80;21175;-78
2020/12/06 00:51:15;;;;;;;26.25;16.77;;;;;;;6.64;83.07;98364.52;2171062;81;21317;-80
2020/12/06 00:54:16;;;;;;;29.55;17.98;;;;;;;6.66;82.99;98368.25;2185656;81;21249;-79
2020/12/06 00:57:18;;;;;;;22.85;15.70;;;;;;;6.66;82.86;98362.56;2167680;80;21126;-78
2020/12/06 01:00:19;;;;;;;26.95;16.40;;;;;;;6.66;82.88;98363.86;2154841;81;21696;-77
2020/12/06 01:03:20;;;;;;;28.62;17.07;;;;;;;6.67;82.99;98362.88;2173135;80;21259;-80
2020/12/06 01:06:21;;;;;;;29.42;18.98;;;;;;;6.69;82.99;98362.25;2213850;80;21476;-78
2020/12/06 01:09:22;;;;;;;29.07;17.87;;;;;;;6.68;82.94;98366.33;2211996;80;21706;-78
2020/12/06 01:12:23;;;;;;;25.80;17.02;;;;;;;6.68;82.89;98376.73;2212989;80;21258;-79
2020/12/06 01:15:25;;;;;;;26.55;17.00;;;;;;;6.67;82.94;98375.89;2203284;80;21370;-78
2020/12/06 01:18:28;;;;;;;25.10;16.85;;;;;;;6.65;83.03;98375.25;2194211;81;21274;-80
2020/12/06 01:21:29;;;;;;;25.17;15.28;;;;;;;6.63;82.94;98373.80;2194833;81;21251;-80
2020/12/06 01:24:31;;;;;;;25.48;16.32;;;;;;;6.63;83.11;98373.80;2172756;81;21143;-80
2020/12/06 01:27:32;;;;;;;24.18;16.85;;;;;;;6.63;83.03;98373.30;2199296;80;21261;-79
2020/12/06 01:30:33;;;;;;;29.52;16.32;;;;;;;6.61;83.12;98380.95;2207661;80;21121;-80
2020/12/06 01:33:34;;;;;;;26.80;17.73;;;;;;;6.59;83.16;98381.12;2206326;80;21233;-79
2020/12/06 01:36:35;;;;;;;21.45;14.78;;;;;;;6.62;83.10;98383.39;2181627;81;21254;-79
2020/12/06 01:39:37;;;;;;;22.10;14.95;;;;;;;6.60;83.22;98394.45;2195406;80;21663;-77
2020/12/06 01:42:38;;;;;;;25.55;17.05;;;;;;;6.60;83.28;98387.95;2181229;80;21234;-78
2020/12/06 01:45:39;;;;;;;28.98;17.60;;;;;;;6.62;83.38;98390.38;2183301;81;21346;-80
2020/12/06 01:48:40;;;;;;;26.50;16.90;;;;;;;6.61;83.18;98398.67;2199553;80;21738;-81
2020/12/06 01:51:42;;;;;;;22.22;14.43;;;;;;;6.58;83.17;98403.37;2179963;80;21246;-79
2020/12/06 01:54:43;;;;;;;20.23;14.80;;;;;;;6.56;83.26;98397.03;2187144;80;21093;-78
2020/12/06 01:57:44;;;;;;;26.57;17.80;;;;;;;6.56;83.14;98415.24;2203104;81;21689;-80
2020/12/06 02:00:45;;;;;;;20.92;14.50;;;;;;;6.52;83.68;98408.75;2233167;79;21692;-80
2020/12/06 02:03:47;;;;;;;29.27;18.10;;;;;;;6.51;83.33;98411.84;2224407;78;21704;-80
2020/12/06 02:06:48;;;;;;;24.40;16.10;;;;;;;6.52;83.47;98419.97;2223802;79;21246;-77
2020/12/06 02:09:49;;;;;;;25.97;16.00;;;;;;;6.52;83.31;98409.56;2255400;79;21267;-79
2020/12/06 02:12:51;;;;;;;24.52;15.45;;;;;;;6.49;83.53;98411.65;2247960;79;21703;-78
2020/12/06 02:15:52;;;;;;;25.23;15.63;;;;;;;6.48;83.50;98406.94;2250853;79;21588;-77
2020/12/06 02:18:53;;;;;;;24.87;16.27;;;;;;;6.48;83.34;98407.42;2246511;79;21258;-80
2020/12/06 02:21:54;;;;;;;22.98;15.63;;;;;;;6.43;83.48;98399.31;2249146;79;21278;-78
2020/12/06 02:24:55;;;;;;;22.90;16.52;;;;;;;6.39;84.04;98397.50;2244807;79;21659;-79
2020/12/06 02:27:56;;;;;;;25.90;18.05;;;;;;;6.40;83.83;98413.91;2254980;79;21251;-77
2020/12/06 02:30:57;;;;;;;25.23;16.52;;;;;;;6.38;84.03;98393.27;2252772;78;21240;-77
2020/12/06 02:33:58;;;;;;;25.15;16.52;;;;;;;6.38;83.70;98387.26;2220151;79;21262;-80
2020/12/06 02:37:00;;;;;;;23.95;16.30;;;;;;;6.35;84.15;98390.19;2236616;79;21561;-77
2020/12/06 02:40:01;;;;;;;21.37;14.60;;;;;;;6.36;83.83;98398.31;2243397;79;21240;-79
2020/12/06 02:43:02;;;;;;;21.42;15.78;;;;;;;6.35;84.09;98391.00;2250816;79;21589;-78
2020/12/06 02:46:03;;;;;;;22.50;15.32;;;;;;;6.34;84.10;98392.47;2251317;79;21306;-79
2020/12/06 02:49:05;;;;;;;21.95;15.23;;;;;;;6.32;83.90;98393.13;2241534;79;21120;-80
2020/12/06 02:52:06;;;;;;;31.37;17.90;;;;;;;6.31;83.92;98391.01;2252316;79;21227;-78
2020/12/06 02:55:07;;;;;;;22.52;15.25;;;;;;;6.27;84.16;98397.00;2254433;79;21239;-78
2020/12/06 02:58:08;;;;;;;19.15;12.33;;;;;;;6.25;84.15;98398.95;2256766;79;21287;-78
2020/12/06 03:01:09;;;;;;;23.35;15.90;;;;;;;6.25;84.08;98402.04;2252402;79;21704;-78
2020/12/06 03:04:10;;;;;;;27.10;17.00;;;;;;;6.23;84.06;98402.69;2236939;79;21527;-79
2020/12/06 03:07:11;;;;;;;27.27;16.80;;;;;;;6.19;84.29;98402.66;2239095;79;21292;-79
2020/12/06 03:10:12;;;;;;;20.68;15.23;;;;;;;6.14;84.36;98403.64;2254908;79;21295;-78
2020/12/06 03:13:14;;;;;;;23.85;14.87;;;;;;;6.10;84.07;98409.63;2253565;79;21255;-76
2020/12/06 03:16:16;;;;;;;25.10;17.48;;;;;;;6.08;84.58;98401.18;2249599;79;21264;-80
2020/12/06 03:19:17;;;;;;;24.72;16.30;;;;;;;6.07;84.58;98402.16;2256653;79;21358;-78
2020/12/06 03:22:18;;;;;;;21.75;14.53;;;;;;;6.03;84.69;98396.92;2251031;79;21259;-80
2020/12/06 03:25:19;;;;;;;28.07;17.15;;;;;;;6.03;84.38;98398.23;2254838;79;21264;-81
2020/12/06 03:28:20;;;;;;;25.50;15.90;;;;;;;5.99;84.44;98398.23;2248170;79;21708;-80
2020/12/06 03:31:22;;;;;;;21.25;14.40;;;;;;;5.93;84.54;98400.96;2250721;79;21301;-77
2020/12/06 03:34:23;;;;;;;20.80;14.87;;;;;;;5.89;84.67;98391.02;2234040;79;21309;-77
2020/12/06 03:37:24;;;;;;;21.68;15.38;;;;;;;5.88;85.03;98398.50;2256492;79;21318;-79
2020/12/06 03:40:25;;;;;;;20.45;13.85;;;;;;;5.88;84.89;98401.09;2255336;79;21267;-78
2020/12/06 03:43:26;;;;;;;23.02;15.48;;;;;;;5.84;85.16;98399.77;2243197;79;21258;-77
2020/12/06 03:46:27;;;;;;;24.80;14.98;;;;;;;5.84;85.01;98399.77;2256167;79;21275;-79
2020/12/06 03:49:28;;;;;;;26.85;17.20;;;;;;;5.83;85.03;98392.45;2256567;79;21846;-78
2020/12/06 03:52:29;;;;;;;23.60;15.83;;;;;;;5.80;85.13;98391.48;2223631;79;21282;-77
2020/12/06 03:55:31;;;;;;;26.70;17.02;;;;;;;5.77;85.16;98392.29;2249765;79;21270;-77
2020/12/06 03:58:32;;;;;;;23.75;16.12;;;;;;;5.76;85.23;98401.02;2255810;79;21720;-76
2020/12/06 04:01:33;;;;;;;29.30;18.80;;;;;;;5.70;85.70;98403.78;2253010;79;21267;-78
2020/12/06 04:04:34;;;;;;;23.35;16.70;;;;;;;5.68;85.86;98396.64;2249971;79;21656;-79
2020/12/06 04:07:36;;;;;;;22.00;15.25;;;;;;;5.68;85.47;98403.13;2253555;79;21287;-77
2020/12/06 04:10:37;;;;;;;24.30;15.68;;;;;;;5.65;85.30;98399.52;2237455;79;21279;-80
2020/12/06 04:13:39;;;;;;;20.68;15.28;;;;;;;5.62;85.65;98388.97;2248497;79;21283;-77
2020/12/06 04:16:40;;;;;;;20.20;14.45;;;;;;;5.62;85.64;98399.36;2248349;79;21282;-79
2020/12/06 04:19:41;;;;;;;24.50;16.48;;;;;;;5.64;85.71;98400.02;2247413;79;21247;-80
2020/12/06 04:22:42;;;;;;;22.73;14.07;;;;;;;5.64;85.57;98403.91;2255809;79;21305;-77
2020/12/06 04:25:43;;;;;;;20.68;14.43;;;;;;;5.61;85.74;98407.31;2246043;79;21276;-80
2020/12/06 04:28:44;;;;;;;20.57;14.10;;;;;;;5.55;85.88;98403.54;2256693;79;21258;-77
2020/12/06 04:31:45;;;;;;;20.57;13.72;;;;;;;5.56;85.75;98412.14;2247712;79;21274;-78
2020/12/06 04:34:46;;;;;;;23.95;13.93;;;;;;;5.53;85.94;98408.56;2255461;79;21228;-79
2020/12/06 04:37:47;;;;;;;25.00;15.72;;;;;;;5.51;86.03;98407.43;2256757;79;21271;-78
2020/12/06 04:40:48;;;;;;;21.10;13.43;;;;;;;5.53;86.06;98408.08;2230598;78;21251;-77
2020/12/06 04:43:49;;;;;;;24.20;16.42;;;;;;;5.51;86.39;98410.02;2253125;79;21700;-81
2020/12/06 04:46:50;;;;;;;18.82;13.32;;;;;;;5.50;85.92;98409.70;2237635;79;21242;-77
2020/12/06 04:49:51;;;;;;;20.72;13.93;;;;;;;5.48;86.19;98420.70;2246863;79;21249;-79
2020/12/06 04:52:52;;;;;;;23.45;15.88;;;;;;;5.46;86.21;98413.55;2249873;79;21244;-80
2020/12/06 04:55:53;;;;;;;22.95;15.05;;;;;;;5.43;86.37;98409.98;2247542;79;21334;-76
2020/12/06 04:58:54;;;;;;;21.35;13.83;;;;;;;5.40;86.67;98412.89;2249255;79;21239;-78
2020/12/06 05:01:56;;;;;;;25.65;16.82;;;;;;;5.40;86.63;98417.60;2239709;78;21656;-77
2020/12/06 05:04:57;;;;;;;21.62;14.73;;;;;;;5.40;86.92;98422.80;2247328;79;21272;-77
2020/12/06 05:07:59;;;;;;;22.93;15.20;;;;;;;5.39;86.69;98427.66;2243804;78;21259;-78
2020/12/06 05:11:00;;;;;;;19.90;13.78;;;;;;;5.38;86.65;98415.62;2248583;78;21100;-79
2020/12/06 05:14:01;;;;;;;22.00;15.30;;;;;;;5.38;86.60;98422.59;2201447;79;21283;-77
2020/12/06 05:17:03;;;;;;;22.85;15.75;;;;;;;5.37;86.59;98422.27;2222322;79;21259;-78
2020/12/06 05:20:04;;;;;;;23.25;14.75;;;;;;;5.34;86.43;98423.88;2237413;79;21268;-76
2020/12/06 05:23:05;;;;;;;23.47;16.00;;;;;;;5.33;87.04;98415.77;2233665;79;21236;-77
2020/12/06 05:26:06;;;;;;;21.55;14.50;;;;;;;5.32;86.72;98421.44;2226479;79;21255;-78
2020/12/06 05:29:07;;;;;;;19.23;12.98;;;;;;;5.29;86.86;98415.72;2199206;80;21236;-76
2020/12/06 05:32:08;;;;;;;21.23;13.72;;;;;;;5.28;87.16;98409.72;2227556;79;21288;-79
2020/12/06 05:35:10;;;;;;;21.17;14.15;;;;;;;5.26;86.98;98422.53;2234121;79;21767;-78
2020/12/06 05:38:11;;;;;;;24.15;14.78;;;;;;;5.20;87.00;98428.32;2211700;79;21211;-77
2020/12/06 05:41:12;;;;;;;21.37;13.28;;;;;;;5.17;87.30;98430.74;2228577;79;21672;-77
2020/12/06 05:44:14;;;;;;;29.77;16.87;;;;;;;5.14;87.22;98432.36;2216970;79;21283;-77
2020/12/06 05:47:15;;;;;;;24.82;15.45;;;;;;;5.12;87.41;98429.92;2209249;79;21235;-77
2020/12/06 05:50:16;;;;;;;28.02;17.80;;;;;;;5.11;87.56;98426.96;2221308;79;21231;-77
2020/12/06 05:53:17;;;;;;;26.00;17.42;;;;;;;5.12;87.59;98425.18;2223507;79;21251;-77
2020/12/06 05:56:18;;;;;;;25.62;15.75;;;;;;;5.08;87.74;98431.17;2237425;79;21573;-77
2020/12/06 05:59:19;;;;;;;22.00;14.73;;;;;;;5.08;87.69;98436.84;2227221;79;21196;-80
2020/12/06 06:02:21;;;;;;;23.75;14.45;;;;;;;5.07;87.56;98435.22;2220876;79;21722;-77
2020/12/06 06:05:22;;;;;;;27.52;17.50;;;;;;;5.04;87.87;98436.83;2243290;79;21263;-79
2020/12/06 06:08:23;;;;;;;24.47;16.37;;;;;;;5.01;87.95;98438.41;2205644;79;21251;-80
2020/12/06 06:11:24;;;;;;;26.77;16.57;;;;;;;5.00;88.08;98438.08;2236766;79;21732;-80
2020/12/06 06:14:26;;;;;;;26.45;15.93;;;;;;;4.95;88.17;98435.95;2218661;79;21239;-79
2020/12/06 06:17:27;;;;;;;24.23;15.85;;;;;;;4.94;88.32;98439.52;2224700;79;21275;-80
2020/12/06 06:20:28;;;;;;;27.30;16.87;;;;;;;4.93;87.95;98450.83;2242184;79;21248;-77
2020/12/06 06:23:29;;;;;;;27.58;17.37;;;;;;;4.91;88.11;98446.28;2219895;79;21239;-78
2020/12/06 06:26:30;;;;;;;20.65;13.53;;;;;;;4.89;88.27;98460.38;2232635;79;21227;-80
2020/12/06 06:29:31;;;;;;;24.52;17.57;;;;;;;4.87;88.09;98459.23;2223250;79;21691;-78
2020/12/06 06:32:32;;;;;;;25.57;16.57;;;;;;;4.85;88.74;98453.39;2227420;79;21225;-78
2020/12/06 06:35:34;;;;;;;23.50;14.63;;;;;;;4.84;88.90;98455.14;2234535;79;21673;-78
2020/12/06 06:38:35;;;;;;;27.70;17.42;;;;;;;4.87;88.57;98451.45;2218836;79;21636;-81
2020/12/06 06:41:36;;;;;;;27.07;16.48;;;;;;;4.88;88.54;98452.27;2236108;79;21335;-79
2020/12/06 06:44:37;;;;;;;26.52;16.17;;;;;;;4.86;88.47;98453.72;2243138;79;21240;-79
2020/12/06 06:47:38;;;;;;;23.47;15.72;;;;;;;4.90;88.87;98458.11;2222835;79;21248;-81
2020/12/06 06:50:39;;;;;;;26.62;14.93;;;;;;;4.94;88.63;98451.19;2237377;79;21159;-79
2020/12/06 06:53:41;;;;;;;25.32;15.75;;;;;;;4.98;88.65;98450.39;2224749;79;21268;-78
2020/12/06 06:56:42;;;;;;;21.80;15.35;;;;;;;5.05;88.53;98452.73;2229437;79;21278;-80
2020/12/06 06:59:43;;;;;;;24.57;15.65;;;;;;;5.08;88.08;98461.02;2226562;78;21728;-79
2020/12/06 07:02:45;;;;;;;19.87;12.95;;;;;;;5.12;88.05;98459.77;2231008;79;21254;-79
2020/12/06 07:05:46;;;;;;;27.22;16.30;;;;;;;5.20;87.99;98457.69;2259463;78;21294;-78
2020/12/06 07:08:47;;;;;;;25.52;14.73;;;;;;;5.26;87.76;98463.58;2235803;78;21279;-80
2020/12/06 07:11:49;;;;;;;25.02;17.00;;;;;;;5.31;87.75;98458.77;2246939;79;21274;-77
2020/12/06 07:14:50;;;;;;;23.12;15.40;;;;;;;5.40;87.47;98443.56;2239677;79;21666;-79
2020/12/06 07:17:51;;;;;;;19.27;12.68;;;;;;;5.49;87.19;98441.84;2237656;79;21287;-78
2020/12/06 07:20:52;;;;;;;26.62;14.93;;;;;;;5.59;86.85;98424.84;2216156;79;21175;-76
2020/12/06 07:23:54;;;;;;;19.62;13.20;;;;;;;5.67;86.54;98436.09;2227796;79;21250;-78
2020/12/06 07:26:55;;;;;;;22.22;13.78;;;;;;;5.77;86.29;98429.47;2242668;79;21219;-78
2020/12/06 07:29:56;;;;;;;20.50;14.10;;;;;;;5.83;85.99;98428.83;2245607;79;21128;-79
2020/12/06 07:32:58;;;;;;;18.07;12.40;;;;;;;5.93;85.87;98436.05;2224771;79;21576;-78
2020/12/06 07:35:59;;;;;;;20.23;13.18;;;;;;;6.02;85.33;98445.98;2241647;79;21549;-79
2020/12/06 07:39:00;;;;;;;19.07;11.60;;;;;;;6.09;85.20;98440.98;2241671;79;21136;-78
2020/12/06 07:42:02;;;;;;;23.18;12.75;;;;;;;6.17;84.96;98452.22;2241293;79;21132;-77
2020/12/06 07:45:03;;;;;;;20.82;13.25;;;;;;;6.28;84.93;98463.63;2244231;79;21136;-77
2020/12/06 07:48:04;;;;;;;21.10;13.48;;;;;;;6.39;84.67;98465.60;2244031;78;21104;-79
2020/12/06 07:51:06;;;;;;;19.67;13.85;;;;;;;6.48;84.53;98470.66;2236835;79;21125;-77
2020/12/06 07:54:07;;;;;;;17.02;13.58;;;;;;;6.56;83.54;98469.87;2242187;79;21270;-79
2020/12/06 07:57:08;;;;;;;17.45;11.97;;;;;;;6.62;83.09;98463.23;2238097;79;21258;-78
2020/12/06 08:00:10;;;;;;;16.67;12.45;;;;;;;6.65;83.38;98466.31;2242768;79;21690;-79
2020/12/06 08:03:11;;;;;;;17.30;13.18;;;;;;;6.69;83.06;98459.02;2225502;78;21294;-78
2020/12/06 08:09:48;;;;;;;18.20;12.43;;;;;;;6.74;82.73;98473.16;2176556;78;21172;-77
2020/12/06 08:12:57;;;;;;;;;;;;;;;6.77;82.30;98453.83;2214593;79;21157;-81
2020/12/06 08:15:58;;;;;;;19.90;13.72;;;;;;;6.81;82.25;98452.52;2230846;78;20225;-80
2020/12/06 08:19:00;;;;;;;19.30;12.25;;;;;;;6.84;82.42;98466.00;2229292;78;21533;-80
2020/12/06 08:22:01;;;;;;;18.52;12.75;;;;;;;6.89;82.59;98481.16;2234625;78;21293;-80
2020/12/06 08:25:04;;;;;;;19.42;12.43;;;;;;;6.92;81.75;98473.50;2241343;78;21274;-82
2020/12/06 08:28:05;;;;;;;17.17;12.68;;;;;;;6.91;81.80;98474.47;2242191;78;21247;-77
2020/12/06 08:31:07;;;;;;;16.12;12.28;;;;;;;6.89;81.73;98475.94;2236904;78;21525;-85
2020/12/06 08:34:09;;;;;;;19.00;13.45;;;;;;;6.92;81.69;98470.89;2220821;78;21668;-78
2020/12/06 08:37:10;;;;;;;19.57;14.10;;;;;;;6.98;81.71;98476.77;2237881;78;21544;-81
2020/12/06 08:40:13;;;;;;;17.55;12.30;;;;;;;7.02;81.81;98478.86;2235890;78;21298;-85
2020/12/06 08:43:16;;;;;;;19.85;13.40;;;;;;;7.08;81.62;98489.94;2221711;78;21294;-82
2020/12/06 08:46:23;;;;;;;16.95;11.18;;;;;;;7.15;81.19;98482.80;2237974;78;21274;-82
2020/12/06 08:49:25;;;;;;;17.30;11.53;;;;;;;7.21;81.09;98486.84;2237171;78;21314;-83
2020/12/06 08:52:27;;;;;;;17.48;11.00;;;;;;;7.32;80.88;98488.32;2239653;78;21104;-80
2020/12/06 08:55:30;;;;;;;14.23;11.90;;;;;;;7.44;80.67;98482.28;2237054;78;21116;-77
2020/12/06 08:58:35;;;;;;;17.62;12.23;;;;;;;7.51;80.26;98465.83;2229062;78;21074;-81
2020/12/06 09:01:37;;;;;;;17.82;12.13;;;;;;;7.55;79.53;98474.92;2233161;78;21222;-81
2020/12/06 09:04:38;;;;;;;12.53;9.70;;;;;;;7.64;80.10;98471.81;2243006;77;21270;-79
2020/12/06 09:07:40;;;;;;;16.57;12.23;;;;;;;7.71;79.27;98468.87;2244990;77;21147;-81
2020/12/06 09:10:41;;;;;;;14.68;11.43;;;;;;;7.76;79.04;98467.05;2243196;77;21237;-78
2020/12/06 09:13:43;;;;;;;14.63;11.35;;;;;;;7.80;79.61;98467.87;2244585;77;21310;-78
2020/12/06 09:16:44;;;;;;;14.33;11.28;;;;;;;7.82;78.05;98452.05;2258340;77;21175;-77
2020/12/06 09:19:46;;;;;;;15.72;12.28;;;;;;;7.91;79.03;98469.30;2251934;77;21585;-78
2020/12/06 09:22:48;;;;;;;15.45;10.03;;;;;;;7.95;78.64;98458.84;2252268;77;21656;-78
2020/12/06 09:26:09;;;;;;;16.70;11.53;;;;;;;7.98;78.09;98452.00;2235575;78;21533;-78
2020/12/06 09:29:24;;;;;;;16.55;12.47;;;;;;;7.96;78.39;98461.30;2076921;84;52831;-74
2020/12/06 09:32:41;;;;;;;15.75;10.78;;;;;;;8.05;77.78;98452.95;2242742;77;23098;-81
2020/12/06 09:35:42;;;;;;;14.25;10.43;;;;;;;7.98;77.73;98442.88;2188430;78;21293;-80
2020/12/06 09:38:43;;;;;;;12.58;9.95;;;;;;;8.01;77.76;98439.92;2202343;78;21238;-75
2020/12/06 09:41:45;;;;;;;12.85;9.95;;;;;;;8.02;77.56;98436.33;2187993;80;21283;-76
2020/12/06 09:44:46;;;;;;;13.53;10.38;;;;;;;8.02;77.47;98436.82;2159666;81;21269;-76
2020/12/06 09:47:48;;;;;;;17.25;11.33;;;;;;;8.02;77.69;98424.59;2102391;83;21154;-76
2020/12/06 09:50:50;;;;;;;16.45;10.98;;;;;;;8.05;77.23;98425.58;2137459;81;21316;-76
2020/12/06 09:53:51;;;;;;;18.48;11.45;;;;;;;8.11;77.21;98421.45;2142359;81;21785;-77
2020/12/06 09:56:52;;;;;;;14.07;10.75;;;;;;;8.15;77.34;98418.36;2167647;80;21280;-77
2020/12/06 09:59:54;;;;;;;13.90;10.45;;;;;;;8.19;76.92;98418.31;2183290;80;21711;-77
2020/12/06 10:02:55;;;;;;;16.15;10.85;;;;;;;8.24;76.96;98417.81;2162067;80;21263;-76
2020/12/06 10:05:56;;;;;;;14.70;10.88;;;;;;;8.26;76.75;98414.05;2185317;81;21183;-81
2020/12/06 10:08:57;;;;;;;13.05;10.28;;;;;;;8.34;76.58;98412.38;2183392;80;21239;-80
2020/12/06 10:11:59;;;;;;;11.35;9.15;;;;;;;8.38;75.97;98404.55;2170424;80;21322;-77
2020/12/06 10:15:00;;;;;;;18.77;11.48;;;;;;;8.41;76.19;98405.50;2134034;82;21132;-75
2020/12/06 10:18:02;;;;;;;12.63;9.60;;;;;;;8.41;76.24;98401.58;2141830;81;21152;-77
2020/12/06 10:21:03;;;;;;;11.90;9.43;;;;;;;8.41;75.62;98395.91;2113698;81;21277;-75
2020/12/06 10:24:04;;;;;;;13.95;10.50;;;;;;;8.41;75.19;98376.33;2128846;83;21305;-75
2020/12/06 10:27:05;;;;;;;15.43;9.43;;;;;;;8.44;75.78;98383.80;2121065;81;21311;-74
2020/12/06 10:30:06;;;;;;;14.40;9.83;;;;;;;8.46;75.98;98379.71;2134475;83;21371;-75
2020/12/06 10:33:08;;;;;;;13.72;9.63;;;;;;;8.47;75.40;98369.59;2209173;79;21255;-74
2020/12/06 10:36:10;;;;;;;11.68;8.58;;;;;;;8.48;75.66;98368.60;2177718;80;21247;-74
2020/12/06 10:39:12;;;;;;;12.07;9.40;;;;;;;8.49;74.78;98368.91;2177621;80;21724;-74
2020/12/06 10:42:14;;;;;;;10.60;8.98;;;;;;;8.49;74.99;98358.48;2169084;79;21660;-74
2020/12/06 10:45:15;;;;;;;14.20;10.30;;;;;;;8.50;75.44;98354.42;2186563;79;21262;-75
2020/12/06 10:48:16;;;;;;;12.88;9.30;;;;;;;8.49;75.22;98367.12;2136330;80;21295;-75
2020/12/06 10:51:17;;;;;;;11.50;9.93;;;;;;;8.50;74.96;98366.16;2157250;79;21706;-75
2020/12/06 10:54:19;;;;;;;12.23;9.83;;;;;;;8.49;74.86;98357.17;2130946;82;21294;-75
2020/12/06 10:57:20;;;;;;;12.30;10.45;;;;;;;8.47;74.84;98369.09;2142166;82;21176;-75
2020/12/06 11:00:21;;;;;;;12.47;9.83;;;;;;;8.48;75.03;98352.95;2131552;83;21161;-75
2020/12/06 11:03:22;;;;;;;13.08;10.15;;;;;;;8.48;75.32;98352.95;2110717;81;21567;-75
2020/12/06 11:06:24;;;;;;;10.95;8.78;;;;;;;8.44;75.05;98354.30;2111292;82;21484;-75
2020/12/06 11:09:25;;;;;;;13.35;8.95;;;;;;;8.48;75.07;98348.53;2137462;82;21167;-75
2020/12/06 11:12:27;;;;;;;13.10;9.90;;;;;;;8.52;75.28;98356.35;2111920;82;21551;-75
2020/12/06 11:15:28;;;;;;;12.00;9.35;;;;;;;8.53;74.74;98344.11;2126324;83;21548;-75
2020/12/06 11:18:29;;;;;;;12.53;9.85;;;;;;;8.53;74.56;98355.36;2110401;83;21305;-75
2020/12/06 11:21:30;;;;;;;10.50;9.08;;;;;;;8.53;74.26;98344.92;2117550;82;21268;-75
2020/12/06 11:24:32;;;;;;;12.50;10.05;;;;;;;8.59;74.85;98353.02;2138322;82;21581;-75
2020/12/06 11:27:33;;;;;;;12.03;9.70;;;;;;;8.53;73.79;98347.53;2110423;81;21302;-75
2020/12/06 11:30:35;;;;;;;11.83;8.08;;;;;;;8.52;74.12;98347.71;2110220;83;21298;-75
2020/12/06 11:33:36;;;;;;;11.83;9.60;;;;;;;8.56;74.66;98354.19;2135360;82;21644;-75
2020/12/06 11:36:38;;;;;;;9.90;8.43;;;;;;;8.56;74.20;98360.72;2123322;81;21158;-76
2020/12/06 11:39:40;;;;;;;10.80;9.18;;;;;;;8.53;73.94;98357.16;2110602;82;21760;-76
2020/12/06 11:42:41;;;;;;;12.40;9.65;;;;;;;8.53;74.49;98353.25;2141431;83;21169;-76
2020/12/06 11:45:43;;;;;;;15.80;9.90;;;;;;;8.54;73.89;98351.77;2124691;82;21090;-76
2020/12/06 11:48:44;;;;;;;13.53;9.90;;;;;;;8.54;73.98;98349.16;2139969;81;21269;-75
2020/12/06 11:51:46;;;;;;;10.30;7.92;;;;;;;8.56;74.18;98347.67;2127454;83;21578;-77
2020/12/06 11:54:47;;;;;;;9.40;7.42;;;;;;;8.54;73.89;98370.03;2110434;81;21735;-76
2020/12/06 11:57:48;;;;;;;13.08;9.70;;;;;;;8.54;73.72;98361.39;2110598;82;21266;-78
2020/12/06 12:00:49;;;;;;;11.97;9.08;;;;;;;8.52;73.55;98368.59;2127958;83;21154;-81
2020/12/06 12:03:51;;;;;;;12.80;9.75;;;;;;;8.48;73.77;98363.38;2128094;83;21163;-77
2020/12/06 12:06:52;;;;;;;12.65;8.63;;;;;;;8.43;73.70;98343.55;2110410;82;21281;-78
2020/12/06 12:09:53;;;;;;;14.05;9.58;;;;;;;8.43;74.11;98353.48;2110313;82;21131;-78
2020/12/06 12:12:54;;;;;;;12.30;9.05;;;;;;;8.44;73.78;98339.95;2110244;83;21324;-78
2020/12/06 12:15:56;;;;;;;11.22;9.18;;;;;;;8.43;74.08;98334.41;2110588;82;21598;-78
2020/12/06 12:19:05;;;;;;;11.30;8.73;;;;;;;8.38;73.61;98333.61;2125495;81;21136;-81
2020/12/06 12:22:01;;;;;;;12.10;8.73;;;;;;;8.35;73.36;98323.54;2128196;81;21097;-76
2020/12/06 12:25:03;;;;;;;10.70;8.40;;;;;;;8.39;73.77;98327.41;2118080;81;21571;-77
2020/12/06 12:28:04;;;;;;;13.32;9.33;;;;;;;8.41;74.04;98323.31;2125449;81;21501;-77
2020/12/06 12:31:06;;;;;;;14.45;9.63;;;;;;;8.41;73.46;98318.94;2126831;81;22008;-77
2020/12/06 12:34:08;;;;;;;10.03;7.80;;;;;;;8.34;73.51;98307.55;2131371;82;21151;-77
2020/12/06 12:37:09;;;;;;;10.82;9.08;;;;;;;8.33;73.62;98298.09;2120178;82;21124;-76
2020/12/06 12:40:10;;;;;;;11.43;9.05;;;;;;;8.32;73.48;98295.17;2121927;82;21230;-77
2020/12/06 12:43:11;;;;;;;10.30;7.33;;;;;;;8.25;73.37;98298.16;2126358;83;21128;-77
2020/12/06 12:46:12;;;;;;;9.30;7.92;;;;;;;8.17;73.19;98283.87;2098364;83;21266;-77
2020/12/06 12:49:14;;;;;;;11.05;8.75;;;;;;;8.17;73.93;98299.02;2115988;82;21136;-77
2020/12/06 12:52:17;;;;;;;10.38;8.85;;;;;;;8.12;73.99;98298.72;2113090;82;21555;-77
2020/12/06 12:55:18;;;;;;;9.25;7.85;;;;;;;8.08;73.93;98305.28;2124809;82;21187;-77
2020/12/06 12:58:19;;;;;;;12.25;9.20;;;;;;;7.98;73.86;98288.56;2145207;82;21108;-77
2020/12/06 13:01:21;;;;;;;9.88;8.10;;;;;;;7.92;73.69;98300.97;2133825;82;21199;-76
2020/12/06 13:04:22;;;;;;;11.57;8.33;;;;;;;7.85;73.86;98305.23;2089951;82;21297;-76
2020/12/06 13:07:23;;;;;;;11.78;9.13;;;;;;;7.80;74.19;98305.45;2124702;83;21159;-76
2020/12/06 13:10:24;;;;;;;12.28;9.40;;;;;;;7.73;74.31;98311.02;2127284;82;21322;-76
2020/12/06 13:13:26;;;;;;;14.58;10.18;;;;;;;7.68;74.26;98317.58;2129288;83;21186;-76
2020/12/06 13:16:27;;;;;;;13.80;10.70;;;;;;;7.62;74.27;98303.10;2118333;84;21120;-77
2020/12/06 13:19:28;;;;;;;13.40;8.65;;;;;;;7.51;74.36;98300.39;2201794;79;21243;-77
2020/12/06 13:22:29;;;;;;;10.48;8.43;;;;;;;7.41;74.61;98314.11;2189615;81;21313;-77
2020/12/06 13:25:30;;;;;;;10.90;8.35;;;;;;;7.33;74.64;98322.77;2206100;79;21524;-76
2020/12/06 13:28:32;;;;;;;11.73;8.18;;;;;;;7.24;74.69;98317.75;2184462;79;21131;-76
2020/12/06 13:31:33;;;;;;;9.55;7.75;;;;;;;7.07;74.60;98319.59;2176090;81;21077;-76
2020/12/06 13:34:34;;;;;;;8.98;7.42;;;;;;;6.94;74.91;98308.86;2157141;79;21274;-76
2020/12/06 13:37:35;;;;;;;11.97;8.38;;;;;;;6.84;75.35;98309.85;2157080;79;21168;-76
2020/12/06 13:40:37;;;;;;;11.88;8.08;;;;;;;6.77;75.52;98327.13;2182913;79;21159;-76
2020/12/06 13:43:38;;;;;;;11.83;8.40;;;;;;;6.73;75.51;98319.31;2156874;81;21262;-76
2020/12/06 13:46:39;;;;;;;11.60;8.63;;;;;;;6.66;75.83;98327.93;2101239;82;21251;-76
2020/12/06 13:49:41;;;;;;;11.78;8.65;;;;;;;6.61;75.91;98333.64;2190165;80;21294;-76
2020/12/06 13:52:42;;;;;;;12.55;8.10;;;;;;;6.55;75.90;98332.48;2182969;79;21137;-76
2020/12/06 13:55:44;;;;;;;12.75;8.35;;;;;;;6.44;76.00;98339.33;2157023;80;21283;-75
2020/12/06 13:58:45;;;;;;;10.28;7.87;;;;;;;6.36;76.07;98342.41;2131657;82;21237;-76
2020/12/06 14:01:46;;;;;;;10.53;8.00;;;;;;;6.31;76.40;98345.50;2205714;79;21279;-76
2020/12/06 14:04:47;;;;;;;11.60;8.05;;;;;;;6.20;76.30;98351.80;2161805;80;21112;-76
2020/12/06 14:07:48;;;;;;;13.00;8.58;;;;;;;6.11;76.52;98349.35;2141185;82;21288;-76
2020/12/06 14:10:49;;;;;;;9.18;6.85;;;;;;;6.03;76.50;98363.14;2158714;81;21168;-76